Terminal Aerodrome Forecast
Issued by NWS Sioux Falls, SD

Home | Current Version | Previous Version | Graphics & Text | Print | Product List | Glossary On
Versions: 1 2 3 4 5 6 7 8 9 10 11 12 13 14 15
581
FTUS43 KFSD 251729
TAFFSD
TAF
KFSD 251729Z 2518/2618 30019G27KT P6SM SCT028 OVC040
      TEMPO 2518/2519 BKN028
     FM252200 30014G20KT P6SM SCT050
     FM260100 29009KT P6SM SKC
     FM261600 30014G19KT P6SM SKC=

USA.gov is the U.S. government's official web portal to all federal, state and local government web resources and services.